createdAt,value
2022-10-10T00:01:28.705Z,11.56
2022-10-10T00:03:56.035Z,11.54
2022-10-10T00:06:33.391Z,11.47
2022-10-10T00:09:01.459Z,11.38
2022-10-10T00:11:28.926Z,11.29
2022-10-10T00:13:55.724Z,11.26
2022-10-10T00:16:22.952Z,11.21
2022-10-10T00:18:50.065Z,11.18
2022-10-10T00:21:16.902Z,11.11
2022-10-10T00:23:43.904Z,11.11
2022-10-10T00:26:14.937Z,11.10
2022-10-10T00:28:45.275Z,11.09
2022-10-10T00:31:12.149Z,11.10
2022-10-10T00:33:38.957Z,11.11
2022-10-10T00:36:07.055Z,11.10
2022-10-10T00:38:34.807Z,11.05
2022-10-10T00:41:02.669Z,11.03
2022-10-10T00:43:31.931Z,10.97
2022-10-10T00:45:59.050Z,11.01
2022-10-10T00:48:31.361Z,11.02
2022-10-10T00:51:10.021Z,11.07
2022-10-10T00:53:45.265Z,11.06
2022-10-10T00:56:14.288Z,11.07
2022-10-10T00:58:46.675Z,11.06
2022-10-10T01:01:13.822Z,11.06
2022-10-10T01:03:40.703Z,11.04
2022-10-10T01:06:07.656Z,11.06
2022-10-10T01:08:35.259Z,11.02
2022-10-10T01:11:29.292Z,11.08
2022-10-10T01:14:20.520Z,11.06
2022-10-10T01:17:00.775Z,11.11
2022-10-10T01:20:01.836Z,11.07
2022-10-10T01:22:49.661Z,10.91
2022-10-10T01:25:28.273Z,10.85
2022-10-10T01:28:02.691Z,10.71
2022-10-10T01:30:31.132Z,10.61
2022-10-10T01:33:13.345Z,10.55
2022-10-10T01:36:11.346Z,10.51
2022-10-10T01:38:59.815Z,10.51
2022-10-10T01:41:34.468Z,10.47
2022-10-10T01:44:01.253Z,10.42
2022-10-10T01:46:28.256Z,10.40
2022-10-10T01:48:57.957Z,10.40
2022-10-10T01:51:49.217Z,10.43
2022-10-10T01:55:07.558Z,10.41
2022-10-10T01:57:47.960Z,10.42
2022-10-10T02:00:16.588Z,10.48
2022-10-10T02:03:02.609Z,10.58
2022-10-10T02:06:00.636Z,10.68
2022-10-10T02:08:44.018Z,10.78
2022-10-10T02:11:12.360Z,10.89
2022-10-10T02:13:46.469Z,10.99
2022-10-10T02:16:22.826Z,11.10
2022-10-10T02:18:51.541Z,11.21
2022-10-10T02:21:19.904Z,11.30
2022-10-10T02:23:50.672Z,11.41
2022-10-10T02:26:18.936Z,11.44
2022-10-10T02:29:01.013Z,11.40
2022-10-10T02:32:04.016Z,11.34
2022-10-10T02:34:37.294Z,11.39
2022-10-10T02:37:10.571Z,11.42
2022-10-10T02:39:43.140Z,11.45
2022-10-10T02:42:12.526Z,11.54
2022-10-10T02:44:40.101Z,11.51
2022-10-10T02:47:07.311Z,11.56
2022-10-10T02:49:35.640Z,11.58
2022-10-10T02:52:03.370Z,11.58
2022-10-10T02:54:30.204Z,11.59
2022-10-10T02:56:57.088Z,11.57
2022-10-10T02:59:24.409Z,11.55
2022-10-10T03:01:51.256Z,11.52
2022-10-10T03:04:18.096Z,11.53
2022-10-10T03:06:45.205Z,11.50
2022-10-10T03:09:12.019Z,11.52
2022-10-10T03:11:38.933Z,11.48
2022-10-10T03:14:05.768Z,11.48
2022-10-10T03:16:32.798Z,11.52
2022-10-10T03:19:00.226Z,11.48
2022-10-10T03:21:27.029Z,11.52
2022-10-10T03:23:53.869Z,11.54
2022-10-10T03:26:20.662Z,11.54
2022-10-10T03:28:47.505Z,11.59
2022-10-10T03:31:14.901Z,11.49
2022-10-10T03:33:41.721Z,11.51
2022-10-10T03:36:08.706Z,11.47
2022-10-10T03:38:35.643Z,11.53
2022-10-10T03:41:02.458Z,11.58
2022-10-10T03:43:29.285Z,11.63
2022-10-10T03:45:56.081Z,11.61
2022-10-10T03:48:22.880Z,11.64
2022-10-10T03:50:49.710Z,11.64
2022-10-10T03:53:16.484Z,11.63
2022-10-10T03:55:43.517Z,11.63
2022-10-10T03:58:11.483Z,11.61
2022-10-10T04:00:39.272Z,11.64
2022-10-10T04:03:06.679Z,11.64
2022-10-10T04:05:35.572Z,11.60
2022-10-10T04:08:03.251Z,11.59
2022-10-10T04:10:30.364Z,11.60
2022-10-10T04:12:58.557Z,11.67
2022-10-10T04:15:25.968Z,11.68
2022-10-10T04:17:52.880Z,11.73
2022-10-10T04:20:19.819Z,11.63
2022-10-10T04:22:46.641Z,11.73
2022-10-10T04:25:13.728Z,11.74
2022-10-10T04:27:40.553Z,11.78
2022-10-10T04:30:08.084Z,11.86
2022-10-10T04:32:34.886Z,11.96
2022-10-10T04:35:02.064Z,11.98
2022-10-10T04:37:28.842Z,12.07
2022-10-10T04:39:55.710Z,12.11
2022-10-10T04:42:22.800Z,12.14
2022-10-10T04:44:49.877Z,12.15
2022-10-10T04:47:17.301Z,12.13
2022-10-10T04:49:44.434Z,12.15
2022-10-10T04:52:11.715Z,12.10
2022-10-10T04:54:38.640Z,12.17
2022-10-10T04:57:05.857Z,12.22
2022-10-10T04:59:32.913Z,12.22
2022-10-10T05:02:01.883Z,12.25
2022-10-10T05:04:29.253Z,12.21
2022-10-10T05:06:56.080Z,12.25
2022-10-10T05:09:22.973Z,12.27
2022-10-10T05:11:49.774Z,12.29
2022-10-10T05:14:16.564Z,12.27
2022-10-10T05:16:43.358Z,12.29
2022-10-10T05:19:10.120Z,12.35
2022-10-10T05:21:36.892Z,12.40
2022-10-10T05:24:03.967Z,12.48
2022-10-10T05:26:30.829Z,12.48
2022-10-10T05:28:57.593Z,12.55
2022-10-10T05:31:24.458Z,12.60
2022-10-10T05:33:51.315Z,12.59
2022-10-10T05:36:18.143Z,12.58
2022-10-10T05:38:45.051Z,12.60
2022-10-10T05:41:12.579Z,12.68
2022-10-10T05:43:39.531Z,12.67
2022-10-10T05:46:06.417Z,12.70
2022-10-10T05:48:33.654Z,12.72
2022-10-10T05:51:01.111Z,12.76
2022-10-10T05:53:30.169Z,12.80
2022-10-10T05:55:57.154Z,12.85
2022-10-10T05:58:24.355Z,12.91
2022-10-10T06:00:51.180Z,12.95
2022-10-10T06:03:18.002Z,13.05
2022-10-10T06:05:48.389Z,13.13
2022-10-10T06:08:15.609Z,13.19
2022-10-10T06:10:45.581Z,13.28
2022-10-10T06:13:14.453Z,13.34
2022-10-10T06:15:41.375Z,13.40
2022-10-10T06:18:08.706Z,13.44
2022-10-10T06:20:40.519Z,13.52
2022-10-10T06:23:08.520Z,13.56
2022-10-10T06:25:41.557Z,13.59
2022-10-10T06:28:10.195Z,13.75
2022-10-10T06:30:44.723Z,13.89
2022-10-10T06:33:12.683Z,14.00
2022-10-10T06:35:42.258Z,14.09
2022-10-10T06:38:10.130Z,14.16
2022-10-10T06:40:36.955Z,14.26
2022-10-10T06:43:04.705Z,14.30
2022-10-10T06:45:31.560Z,14.43
2022-10-10T06:47:58.334Z,14.54
2022-10-10T06:50:25.152Z,14.52
2022-10-10T06:52:52.386Z,14.57
2022-10-10T06:55:19.431Z,14.60
2022-10-10T06:57:46.196Z,14.31
2022-10-10T07:00:13.969Z,14.61
2022-10-10T07:02:41.053Z,14.73
2022-10-10T07:05:16.319Z,14.83
2022-10-10T07:07:43.803Z,14.95
2022-10-10T07:10:14.976Z,15.07
2022-10-10T07:12:44.722Z,14.89
2022-10-10T07:15:11.933Z,14.77
2022-10-10T07:17:39.254Z,14.99
2022-10-10T07:20:06.537Z,14.99
2022-10-10T07:22:33.603Z,15.03
2022-10-10T07:25:00.387Z,15.16
2022-10-10T07:27:27.348Z,15.22
2022-10-10T07:29:54.192Z,15.16
2022-10-10T07:32:21.045Z,15.15
2022-10-10T07:34:47.832Z,15.20
2022-10-10T07:37:14.619Z,15.45
2022-10-10T07:39:41.486Z,15.44
2022-10-10T07:42:08.245Z,15.48
2022-10-10T07:44:35.056Z,15.19
2022-10-10T07:47:02.004Z,15.33
2022-10-10T07:49:28.940Z,15.40
2022-10-10T07:52:00.460Z,15.43
2022-10-10T07:54:31.392Z,15.49
2022-10-10T07:56:58.406Z,15.32
2022-10-10T07:59:25.552Z,15.40
2022-10-10T08:01:52.642Z,15.43
2022-10-10T08:04:20.062Z,15.49
2022-10-10T08:06:46.983Z,15.50
2022-10-10T08:09:13.758Z,15.57
2022-10-10T08:11:40.568Z,15.66
2022-10-10T08:14:07.348Z,15.53
2022-10-10T08:16:34.161Z,15.28
2022-10-10T08:19:01.077Z,15.37
2022-10-10T08:21:27.957Z,15.48
2022-10-10T08:23:55.741Z,15.81
2022-10-10T08:26:22.599Z,16.25
2022-10-10T08:28:49.483Z,16.55
2022-10-10T08:31:21.296Z,16.75
2022-10-10T08:33:50.512Z,17.17
2022-10-10T08:36:23.102Z,16.45
2022-10-10T08:38:52.677Z,16.11
2022-10-10T08:41:42.237Z,17.13
2022-10-10T08:44:40.642Z,17.97
2022-10-10T08:47:17.706Z,18.48
2022-10-10T08:50:02.022Z,18.98
2022-10-10T08:52:53.755Z,18.44
2022-10-10T08:55:33.060Z,18.97
2022-10-10T08:58:16.712Z,19.41
2022-10-10T09:00:58.919Z,20.07
2022-10-10T09:03:49.470Z,20.56
2022-10-10T09:06:17.410Z,21.09
2022-10-10T09:09:26.373Z,21.24
2022-10-10T09:12:26.654Z,21.19
2022-10-10T09:15:15.409Z,19.91
2022-10-10T09:18:27.857Z,18.06
2022-10-10T09:21:16.188Z,19.61
2022-10-10T09:24:03.411Z,20.41
2022-10-10T09:26:39.658Z,21.54
2022-10-10T09:29:44.637Z,21.85
2022-10-10T09:32:15.174Z,21.08
2022-10-10T09:34:48.400Z,22.47
2022-10-10T09:37:35.614Z,22.63
2022-10-10T09:40:30.368Z,22.70
2022-10-10T09:42:57.286Z,23.00
2022-10-10T09:45:39.029Z,23.29
2022-10-10T09:48:06.113Z,22.46
2022-10-10T09:50:32.882Z,23.36
2022-10-10T09:53:00.046Z,23.13
2022-10-10T09:55:31.227Z,23.54
2022-10-10T09:58:20.697Z,24.02
2022-10-10T10:00:47.803Z,24.17
2022-10-10T10:03:18.761Z,24.13
2022-10-10T10:05:59.730Z,24.20
2022-10-10T10:08:33.287Z,24.42
2022-10-10T10:11:01.337Z,24.33
2022-10-10T10:13:33.239Z,24.36
2022-10-10T10:16:11.790Z,24.43
2022-10-10T10:18:48.323Z,22.68
2022-10-10T10:21:23.277Z,23.29
2022-10-10T10:24:22.616Z,24.19
2022-10-10T10:26:50.672Z,24.43
2022-10-10T10:29:28.788Z,24.27
2022-10-10T10:32:16.381Z,24.69
2022-10-10T10:35:24.921Z,24.02
2022-10-10T10:38:14.329Z,24.87
2022-10-10T10:40:50.753Z,24.69
2022-10-10T10:43:35.384Z,24.70
2022-10-10T10:46:53.441Z,25.08
2022-10-10T10:49:27.057Z,24.59
2022-10-10T10:52:27.578Z,25.12
2022-10-10T10:55:12.883Z,25.28
2022-10-10T10:58:10.480Z,24.90
2022-10-10T11:01:38.407Z,24.54
2022-10-10T11:05:21.340Z,25.07
2022-10-10T11:07:20.893Z,25.98
2022-10-10T11:10:03.860Z,27.08
2022-10-10T11:13:14.295Z,28.41
2022-10-10T11:16:54.167Z,27.82
2022-10-10T11:19:41.983Z,27.54
2022-10-10T11:22:15.528Z,27.51
2022-10-10T11:24:59.961Z,27.36
2022-10-10T11:27:48.640Z,27.02
2022-10-10T11:30:23.989Z,25.06
2022-10-10T11:32:59.560Z,25.35
2022-10-10T11:35:50.558Z,25.48
2022-10-10T11:38:43.237Z,25.30
2022-10-10T11:41:19.211Z,25.20
2022-10-10T11:43:52.852Z,25.14
2022-10-10T11:46:57.258Z,24.93
2022-10-10T11:49:54.274Z,25.02
2022-10-10T11:53:07.658Z,25.10
2022-10-10T11:55:57.403Z,24.71
2022-10-10T11:58:29.985Z,24.99
2022-10-10T12:01:06.005Z,24.75
2022-10-10T12:03:32.936Z,23.77
2022-10-10T12:06:07.287Z,23.69
2022-10-10T12:09:08.580Z,23.36
2022-10-10T12:11:48.356Z,23.13
2022-10-10T12:14:19.904Z,23.77
2022-10-10T12:16:47.353Z,23.94
2022-10-10T12:19:21.717Z,24.30
2022-10-10T12:22:04.833Z,24.33
2022-10-10T12:24:42.502Z,23.94
2022-10-10T12:27:28.405Z,24.30
2022-10-10T12:29:55.075Z,24.15
2022-10-10T12:32:30.501Z,24.45
2022-10-10T12:35:00.889Z,24.47
2022-10-10T12:37:33.366Z,24.61
2022-10-10T12:40:19.058Z,24.31
2022-10-10T12:42:48.744Z,23.79
2022-10-10T12:45:30.574Z,24.05
2022-10-10T12:48:20.021Z,24.11
2022-10-10T12:51:01.469Z,24.03
2022-10-10T12:53:32.747Z,23.95
2022-10-10T12:56:02.173Z,24.04
2022-10-10T12:58:34.645Z,24.06
2022-10-10T13:01:09.192Z,23.83
2022-10-10T13:03:47.865Z,23.96
2022-10-10T13:06:40.191Z,23.79
2022-10-10T13:09:24.417Z,24.25
2022-10-10T13:11:59.548Z,24.08
2022-10-10T13:14:38.365Z,23.89
2022-10-10T13:17:32.838Z,24.00
2022-10-10T13:20:01.301Z,23.72
2022-10-10T13:22:31.337Z,23.87
2022-10-10T13:25:00.036Z,23.77
2022-10-10T13:27:31.286Z,23.80
2022-10-10T13:29:58.288Z,23.31
2022-10-10T13:32:27.829Z,23.22
2022-10-10T13:35:05.341Z,23.28
2022-10-10T13:37:32.798Z,23.40
2022-10-10T13:40:00.626Z,23.45
2022-10-10T13:42:39.945Z,23.33
2022-10-10T13:45:35.512Z,23.38
2022-10-10T13:48:02.185Z,23.51
2022-10-10T13:50:44.044Z,23.43
2022-10-10T13:53:29.532Z,23.39
2022-10-10T13:56:25.879Z,23.50
2022-10-10T13:59:01.475Z,23.32
2022-10-10T14:01:38.213Z,23.44
2022-10-10T14:04:15.461Z,23.28
2022-10-10T14:07:13.255Z,23.22
2022-10-10T14:09:53.525Z,23.17
2022-10-10T14:12:35.064Z,23.09
2022-10-10T14:15:04.762Z,23.12
2022-10-10T14:17:32.995Z,23.06
2022-10-10T14:19:59.764Z,22.94
2022-10-10T14:22:27.140Z,22.99
2022-10-10T14:24:53.946Z,22.91
2022-10-10T14:27:26.119Z,22.83
2022-10-10T14:29:56.690Z,22.82
2022-10-10T14:32:24.052Z,23.00
2022-10-10T14:34:50.902Z,23.01
2022-10-10T14:37:23.684Z,22.90
2022-10-10T14:39:50.969Z,22.79
2022-10-10T14:42:19.236Z,22.80
2022-10-10T14:44:46.821Z,22.82
2022-10-10T14:47:24.902Z,22.83
2022-10-10T14:49:53.393Z,22.89
2022-10-10T14:52:20.481Z,22.88
2022-10-10T14:54:47.265Z,22.88
2022-10-10T14:57:14.870Z,22.92
2022-10-10T14:59:48.798Z,22.93
2022-10-10T15:02:19.122Z,22.89
2022-10-10T15:04:45.880Z,22.82
2022-10-10T15:07:14.751Z,22.72
2022-10-10T15:10:02.533Z,22.59
2022-10-10T15:12:30.137Z,22.45
2022-10-10T15:14:56.979Z,22.41
2022-10-10T15:17:25.493Z,22.35
2022-10-10T15:19:52.339Z,22.02
2022-10-10T15:22:19.406Z,21.71
2022-10-10T15:24:46.198Z,21.53
2022-10-10T15:27:13.506Z,21.49
2022-10-10T15:29:40.336Z,21.45
2022-10-10T15:32:07.311Z,21.42
2022-10-10T15:34:34.470Z,21.35
2022-10-10T15:37:01.277Z,21.32
2022-10-10T15:39:29.149Z,21.26
2022-10-10T15:41:56.326Z,21.19
2022-10-10T15:44:23.300Z,21.06
2022-10-10T15:46:50.096Z,21.05
2022-10-10T15:49:16.888Z,21.03
2022-10-10T15:51:46.298Z,21.00
2022-10-10T15:54:14.364Z,20.92
2022-10-10T15:56:41.650Z,20.76
2022-10-10T15:59:09.447Z,20.65
2022-10-10T16:01:36.995Z,20.55
2022-10-10T16:04:05.187Z,20.52
2022-10-10T16:06:33.071Z,20.43
2022-10-10T16:09:23.432Z,20.41
2022-10-10T16:11:48.784Z,20.34
2022-10-10T16:14:15.626Z,20.25
2022-10-10T16:16:42.532Z,20.14
2022-10-10T16:19:09.404Z,20.07
2022-10-10T16:21:36.233Z,19.98
2022-10-10T16:24:03.070Z,19.96
2022-10-10T16:26:33.394Z,19.91
2022-10-10T16:29:01.871Z,19.86
2022-10-10T16:31:29.725Z,19.83
2022-10-10T16:33:58.919Z,19.79
2022-10-10T16:36:31.585Z,19.75
2022-10-10T16:38:59.331Z,19.69
2022-10-10T16:41:48.409Z,19.69
2022-10-10T16:44:17.215Z,19.69
2022-10-10T16:46:44.201Z,19.72
2022-10-10T16:49:14.010Z,19.69
2022-10-10T16:51:40.916Z,19.64
2022-10-10T16:54:07.714Z,19.78
2022-10-10T16:56:35.242Z,19.71
2022-10-10T16:59:02.901Z,19.63
2022-10-10T17:01:29.869Z,19.55
2022-10-10T17:03:59.815Z,19.55
2022-10-10T17:06:32.598Z,19.55
2022-10-10T17:09:02.657Z,19.52
2022-10-10T17:11:29.497Z,19.46
2022-10-10T17:13:56.484Z,19.42
2022-10-10T17:19:13.567Z,19.24
2022-10-10T17:21:40.496Z,19.18
2022-10-10T17:24:07.349Z,19.14
2022-10-10T17:26:34.156Z,19.05
2022-10-10T17:29:01.104Z,19.04
2022-10-10T17:31:28.390Z,19.02
2022-10-10T17:33:57.320Z,19.06
2022-10-10T17:36:27.468Z,19.06
2022-10-10T17:38:56.274Z,19.07
2022-10-10T17:41:23.689Z,19.07
2022-10-10T17:43:50.677Z,19.05
2022-10-10T17:46:40.874Z,18.95
2022-10-10T17:49:10.758Z,18.91
2022-10-10T17:51:40.093Z,18.91
2022-10-10T17:54:09.358Z,18.89
2022-10-10T17:56:37.373Z,18.78
2022-10-10T17:59:06.534Z,18.70
2022-10-10T18:01:35.696Z,18.66
2022-10-10T18:04:02.713Z,18.61
2022-10-10T18:06:31.372Z,18.50
2022-10-10T18:08:59.327Z,18.40
2022-10-10T18:11:31.208Z,18.36
2022-10-10T18:14:00.661Z,18.31
2022-10-10T18:16:35.469Z,18.23
2022-10-10T18:19:05.569Z,18.10
2022-10-10T18:21:32.559Z,18.02
2022-10-10T18:24:00.575Z,17.82
2022-10-10T18:26:29.633Z,17.62
2022-10-10T18:28:57.435Z,17.45
2022-10-10T18:31:34.462Z,17.30
2022-10-10T18:34:02.561Z,17.15
2022-10-10T18:36:34.306Z,16.92
2022-10-10T18:39:05.539Z,16.88
2022-10-10T18:41:35.296Z,16.86
2022-10-10T18:44:06.015Z,16.79
2022-10-10T18:46:33.666Z,16.71
2022-10-10T18:49:02.441Z,16.72
2022-10-10T18:51:29.995Z,16.73
2022-10-10T18:54:04.697Z,16.76
2022-10-10T18:56:33.098Z,16.72
2022-10-10T18:59:03.796Z,16.64
2022-10-10T19:01:35.982Z,16.60
2022-10-10T19:04:05.870Z,16.50
2022-10-10T19:06:33.418Z,16.39
2022-10-10T19:09:02.054Z,16.29
2022-10-10T19:11:34.464Z,16.17
2022-10-10T19:14:04.757Z,16.08
2022-10-10T19:16:32.400Z,16.00
2022-10-10T19:19:02.906Z,15.95
2022-10-10T19:21:33.920Z,15.94
2022-10-10T19:24:02.489Z,15.90
2022-10-10T19:26:33.197Z,15.84
2022-10-10T19:29:07.195Z,15.79
2022-10-10T19:31:38.781Z,15.76
2022-10-10T19:34:05.619Z,15.68
2022-10-10T19:36:32.570Z,15.60
2022-10-10T19:39:00.746Z,15.51
2022-10-10T19:41:28.663Z,15.41
2022-10-10T19:43:58.094Z,15.35
2022-10-10T19:46:27.421Z,15.22
2022-10-10T19:48:58.000Z,15.05
2022-10-10T19:51:27.304Z,15.01
2022-10-10T19:53:54.472Z,15.01
2022-10-10T19:56:24.493Z,14.95
2022-10-10T19:58:56.857Z,14.93
2022-10-10T20:01:29.329Z,14.94
2022-10-10T20:03:57.242Z,14.95
2022-10-10T20:06:26.081Z,14.87
2022-10-10T20:08:53.313Z,14.83
2022-10-10T20:11:20.366Z,14.79
2022-10-10T20:13:51.991Z,14.78
2022-10-10T20:16:27.526Z,14.76
2022-10-10T20:18:57.027Z,14.80
2022-10-10T20:21:31.173Z,14.73
2022-10-10T20:24:02.111Z,14.65
2022-10-10T20:26:29.475Z,14.61
2022-10-10T20:28:57.609Z,14.56
2022-10-10T20:31:28.770Z,14.51
2022-10-10T20:33:58.377Z,14.51
2022-10-10T20:36:25.700Z,14.47
2022-10-10T20:38:58.821Z,14.47
2022-10-10T20:41:28.169Z,14.44
2022-10-10T20:44:00.843Z,14.54
2022-10-10T20:46:31.497Z,14.66
2022-10-10T20:49:00.666Z,14.71
2022-10-10T20:51:28.325Z,14.68
2022-10-10T20:53:59.018Z,14.64
2022-10-10T20:56:27.385Z,14.63
2022-10-10T20:58:55.245Z,14.60
2022-10-10T21:01:25.749Z,14.52
2022-10-10T21:03:52.973Z,14.43
2022-10-10T21:06:31.458Z,14.38
2022-10-10T21:09:01.857Z,14.34
2022-10-10T21:11:28.743Z,14.11
2022-10-10T21:13:58.979Z,14.02
2022-10-10T21:16:40.309Z,13.98
2022-10-10T21:19:09.816Z,13.89
2022-10-10T21:21:37.549Z,13.79
2022-10-10T21:24:08.063Z,13.69
2022-10-10T21:26:34.913Z,13.57
2022-10-10T21:29:01.876Z,13.57
2022-10-10T21:31:32.782Z,13.62
2022-10-10T21:34:02.412Z,13.63
2022-10-10T21:36:30.712Z,13.68
2022-10-10T21:38:58.956Z,13.67
2022-10-10T21:41:26.048Z,13.57
2022-10-10T21:43:56.620Z,13.69
2022-10-10T21:46:36.796Z,13.61
2022-10-10T21:49:08.124Z,13.60
2022-10-10T21:51:38.199Z,13.57
2022-10-10T21:54:05.649Z,13.52
2022-10-10T21:56:33.667Z,13.52
2022-10-10T21:59:01.704Z,13.54
2022-10-10T22:01:32.954Z,13.52
2022-10-10T22:04:01.164Z,13.41
2022-10-10T22:06:27.996Z,13.32
2022-10-10T22:08:58.517Z,13.21
2022-10-10T22:11:27.278Z,13.14
2022-10-10T22:13:54.489Z,13.11
2022-10-10T22:16:21.612Z,13.10
2022-10-10T22:18:53.232Z,13.04
2022-10-10T22:21:20.538Z,13.01
2022-10-10T22:23:47.303Z,13.03
2022-10-10T22:26:16.874Z,13.04
2022-10-10T22:28:45.031Z,13.09
2022-10-10T22:31:17.530Z,13.08
2022-10-10T22:33:45.055Z,13.07
2022-10-10T22:36:12.461Z,13.12
2022-10-10T22:38:43.160Z,13.16
2022-10-10T22:41:11.128Z,13.16
2022-10-10T22:43:38.041Z,13.15
2022-10-10T22:46:05.949Z,13.13
2022-10-10T22:48:33.103Z,13.13
2022-10-10T22:51:06.465Z,13.08
2022-10-10T22:53:33.328Z,13.05
2022-10-10T22:56:00.177Z,13.00
2022-10-10T22:58:27.124Z,13.00
2022-10-10T23:00:54.036Z,12.96
2022-10-10T23:03:21.068Z,12.95
2022-10-10T23:05:47.932Z,12.96
2022-10-10T23:08:15.037Z,12.94
2022-10-10T23:10:42.039Z,12.99
2022-10-10T23:13:08.868Z,13.07
2022-10-10T23:15:35.729Z,13.15
2022-10-10T23:18:02.604Z,13.23
2022-10-10T23:20:29.438Z,13.17
2022-10-10T23:22:56.499Z,13.08
2022-10-10T23:25:23.613Z,13.20
2022-10-10T23:27:51.235Z,13.35
2022-10-10T23:30:18.132Z,13.38
2022-10-10T23:32:45.051Z,13.33
2022-10-10T23:35:13.519Z,13.09
2022-10-10T23:37:41.619Z,12.95
2022-10-10T23:40:09.051Z,12.83
2022-10-10T23:42:35.869Z,12.76
2022-10-10T23:45:03.440Z,12.75
2022-10-10T23:47:30.349Z,12.68
2022-10-10T23:49:57.183Z,12.70
2022-10-10T23:52:23.979Z,12.68
2022-10-10T23:54:50.788Z,12.74
2022-10-10T23:57:17.627Z,12.82
2022-10-10T23:59:44.429Z,12.72
